createdAt,value
2023-10-29T00:00:47.324Z,9.52
2023-10-29T00:04:50.013Z,10.31
2023-10-29T00:08:52.874Z,10.47
2023-10-29T00:12:57.483Z,10.44
2023-10-29T00:17:00.196Z,10.54
2023-10-29T00:21:03.564Z,10.44
2023-10-29T00:25:06.640Z,10.42
2023-10-29T00:29:10.858Z,10.41
2023-10-29T00:33:14.310Z,10.49
2023-10-29T00:37:18.536Z,10.56
2023-10-29T00:41:21.325Z,10.62
2023-10-29T00:45:25.660Z,10.62
2023-10-29T00:49:28.774Z,10.58
2023-10-29T00:53:31.877Z,10.62
2023-10-29T00:57:34.609Z,10.67
2023-10-29T01:01:39.036Z,10.66
2023-10-29T01:05:42.112Z,10.64
2023-10-29T01:09:47.252Z,10.24
2023-10-29T01:13:51.043Z,10.84
2023-10-29T01:17:55.387Z,10.78
2023-10-29T01:21:58.410Z,10.73
2023-10-29T01:26:01.141Z,10.48
2023-10-29T01:30:03.988Z,10.40
2023-10-29T01:34:08.277Z,10.51
2023-10-29T01:38:11.111Z,10.52
2023-10-29T01:42:13.968Z,10.51
2023-10-29T01:46:16.664Z,10.44
2023-10-29T01:50:21.008Z,10.38
2023-10-29T01:54:23.978Z,10.43
2023-10-29T01:58:26.685Z,10.44
2023-10-29T02:02:29.502Z,10.37
2023-10-29T02:06:39.243Z,10.42
2023-10-29T02:10:42.077Z,10.51
2023-10-29T02:14:45.212Z,10.18
2023-10-29T02:18:48.222Z,10.20
2023-10-29T02:22:52.613Z,10.46
2023-10-29T02:26:55.434Z,10.41
2023-10-29T02:30:58.251Z,10.38
2023-10-29T02:35:01.072Z,10.35
2023-10-29T02:39:05.680Z,10.39
2023-10-29T02:43:08.506Z,10.02
2023-10-29T02:47:11.759Z,10.41
2023-10-29T02:51:14.554Z,10.34
2023-10-29T02:55:18.858Z,10.33
2023-10-29T02:59:23.072Z,10.33
2023-10-29T03:03:25.876Z,10.39
2023-10-29T03:07:28.782Z,10.40
2023-10-29T03:11:33.134Z,10.11
2023-10-29T03:15:35.934Z,10.43
2023-10-29T03:19:38.673Z,10.38
2023-10-29T03:23:41.516Z,10.44
2023-10-29T03:27:45.834Z,10.55
2023-10-29T03:31:49.076Z,10.56
2023-10-29T03:35:51.870Z,10.63
2023-10-29T03:39:54.733Z,10.68
2023-10-29T03:43:59.131Z,10.75
2023-10-29T03:48:02.298Z,10.81
2023-10-29T03:52:06.963Z,10.88
2023-10-29T03:56:09.833Z,10.86
2023-10-29T04:00:15.854Z,10.87
2023-10-29T04:04:19.795Z,10.69
2023-10-29T04:08:23.311Z,10.79
2023-10-29T04:12:29.003Z,10.85
2023-10-29T04:16:33.428Z,10.80
2023-10-29T04:20:36.395Z,10.91
2023-10-29T04:24:39.616Z,10.94
2023-10-29T04:28:42.285Z,11.02
2023-10-29T04:32:46.479Z,11.05
2023-10-29T04:36:53.040Z,11.01
2023-10-29T04:40:55.763Z,11.03
2023-10-29T04:44:58.447Z,11.06
2023-10-29T04:49:02.552Z,11.04
2023-10-29T04:53:05.385Z,11.08
2023-10-29T04:57:08.366Z,11.08
2023-10-29T05:01:11.146Z,11.11
2023-10-29T05:05:15.587Z,11.09
2023-10-29T05:09:18.757Z,11.09
2023-10-29T05:13:21.615Z,11.07
2023-10-29T05:17:24.528Z,11.08
2023-10-29T05:21:28.910Z,11.15
2023-10-29T05:25:31.739Z,11.13
2023-10-29T05:29:35.361Z,11.12
2023-10-29T05:33:39.027Z,11.09
2023-10-29T05:37:43.960Z,11.12
2023-10-29T05:41:47.130Z,11.16
2023-10-29T05:45:49.954Z,11.25
2023-10-29T05:49:52.726Z,11.31
2023-10-29T05:53:57.514Z,11.32
2023-10-29T05:58:00.233Z,11.30
2023-10-29T06:02:02.938Z,11.43
2023-10-29T06:06:06.106Z,11.48
2023-10-29T06:10:11.760Z,11.51
2023-10-29T06:14:14.448Z,11.50
2023-10-29T06:18:18.072Z,11.52
2023-10-29T06:22:21.003Z,11.45
2023-10-29T06:26:25.491Z,11.48
2023-10-29T06:30:28.222Z,11.40
2023-10-29T06:34:30.982Z,11.47
2023-10-29T06:38:34.301Z,11.47
2023-10-29T06:42:39.224Z,11.49
2023-10-29T06:46:41.917Z,11.68
2023-10-29T06:50:44.772Z,11.47
2023-10-29T06:54:47.796Z,11.43
2023-10-29T06:58:52.371Z,11.49
2023-10-29T07:02:55.621Z,11.49
2023-10-29T07:06:58.378Z,11.47
2023-10-29T07:11:01.958Z,11.50
2023-10-29T07:15:07.125Z,11.52
2023-10-29T07:19:09.951Z,11.55
2023-10-29T07:23:12.832Z,11.59
2023-10-29T07:27:15.953Z,11.61
2023-10-29T07:31:21.743Z,11.68
2023-10-29T07:35:24.801Z,11.70
2023-10-29T07:39:28.057Z,11.76
2023-10-29T07:43:30.721Z,11.80
2023-10-29T07:47:35.270Z,11.82
2023-10-29T07:51:38.158Z,11.83
2023-10-29T07:55:40.953Z,11.88
2023-10-29T07:59:44.047Z,11.89
2023-10-29T08:03:49.765Z,10.96
2023-10-29T08:07:52.604Z,11.92
2023-10-29T08:11:55.353Z,11.57
2023-10-29T08:15:58.144Z,11.92
2023-10-29T08:20:02.320Z,11.91
2023-10-29T08:24:05.663Z,11.92
2023-10-29T08:28:09.552Z,11.95
2023-10-29T08:32:12.378Z,11.95
2023-10-29T08:36:19.562Z,11.79
2023-10-29T08:40:22.308Z,11.99
2023-10-29T08:44:25.141Z,12.04
2023-10-29T08:48:27.840Z,12.11
2023-10-29T08:52:32.110Z,12.20
2023-10-29T08:56:35.026Z,12.32
2023-10-29T09:00:45.986Z,12.33
2023-10-29T09:04:53.969Z,12.54
2023-10-29T09:08:58.078Z,12.63
2023-10-29T09:13:01.489Z,12.64
2023-10-29T09:17:04.357Z,12.19
2023-10-29T09:21:07.233Z,12.57
2023-10-29T09:25:11.727Z,12.54
2023-10-29T09:29:14.811Z,12.51
2023-10-29T09:33:17.775Z,12.43
2023-10-29T09:37:20.643Z,12.42
2023-10-29T09:41:25.256Z,12.48
2023-10-29T09:45:28.923Z,12.55
2023-10-29T09:49:32.167Z,12.41
2023-10-29T09:53:36.941Z,12.44
2023-10-29T09:57:41.832Z,12.24
2023-10-29T10:01:55.720Z,12.25
2023-10-29T10:06:01.646Z,12.16
2023-10-29T10:10:04.604Z,12.06
2023-10-29T10:14:08.795Z,11.99
2023-10-29T10:18:14.130Z,12.08
2023-10-29T10:22:35.411Z,12.13
2023-10-29T10:26:40.458Z,12.02
2023-10-29T10:30:44.853Z,11.96
2023-10-29T10:34:53.217Z,12.11
2023-10-29T10:38:56.154Z,12.02
2023-10-29T10:42:58.882Z,11.90
2023-10-29T10:47:04.797Z,11.38
2023-10-29T10:51:07.736Z,11.61
2023-10-29T10:55:26.427Z,11.57
2023-10-29T10:59:37.303Z,11.58
2023-10-29T11:03:41.991Z,11.67
2023-10-29T11:07:46.047Z,11.71
2023-10-29T11:11:51.944Z,11.68
2023-10-29T11:15:55.424Z,11.70
2023-10-29T11:19:59.691Z,11.78
2023-10-29T11:24:18.559Z,11.85
2023-10-29T11:28:43.286Z,11.81
2023-10-29T11:32:47.485Z,11.78
2023-10-29T11:36:52.288Z,11.70
2023-10-29T11:40:55.345Z,11.77
2023-10-29T11:45:35.475Z,11.65
2023-10-29T11:50:12.453Z,11.70
2023-10-29T11:54:17.642Z,11.70
2023-10-29T11:58:24.304Z,11.65
2023-10-29T12:02:27.376Z,11.69
2023-10-29T12:06:41.213Z,11.68
2023-10-29T12:10:48.934Z,11.70
2023-10-29T12:14:51.815Z,11.65
2023-10-29T12:18:57.540Z,11.65
2023-10-29T12:23:04.140Z,11.57
2023-10-29T12:27:08.646Z,11.56
2023-10-29T12:31:24.642Z,11.50
2023-10-29T12:35:36.772Z,11.73
2023-10-29T12:39:45.885Z,11.91
2023-10-29T12:43:52.665Z,11.95
2023-10-29T12:48:15.545Z,11.97
2023-10-29T12:52:19.967Z,11.88
2023-10-29T12:56:22.819Z,11.97
2023-10-29T13:00:26.968Z,11.93
2023-10-29T13:04:30.246Z,11.88
2023-10-29T13:08:32.976Z,11.01
2023-10-29T13:12:38.184Z,11.82
2023-10-29T13:16:42.839Z,11.23
2023-10-29T13:20:46.197Z,11.88
2023-10-29T13:24:49.105Z,11.89
2023-10-29T13:28:51.943Z,11.88
2023-10-29T13:32:56.287Z,11.82
2023-10-29T13:36:59.148Z,11.79
2023-10-29T13:41:03.601Z,11.72
2023-10-29T13:45:07.514Z,11.82
2023-10-29T13:49:11.781Z,11.79
2023-10-29T13:53:14.846Z,11.78
2023-10-29T13:57:17.827Z,11.64
2023-10-29T14:01:21.937Z,11.75
2023-10-29T14:05:26.413Z,11.87
2023-10-29T14:09:29.387Z,11.86
2023-10-29T14:13:32.187Z,11.87
2023-10-29T14:17:35.048Z,11.95
2023-10-29T14:21:39.290Z,11.68
2023-10-29T14:25:41.952Z,11.95
2023-10-29T14:29:44.882Z,11.87
2023-10-29T14:33:47.906Z,11.85
2023-10-29T14:37:54.231Z,11.76
2023-10-29T14:41:58.219Z,11.74
2023-10-29T14:46:04.941Z,11.72
2023-10-29T14:50:09.966Z,11.35
2023-10-29T14:54:14.379Z,11.63
2023-10-29T14:58:17.951Z,11.61
2023-10-29T15:02:20.670Z,11.59
2023-10-29T15:06:23.562Z,11.59
2023-10-29T15:10:28.432Z,11.56
2023-10-29T15:14:31.188Z,11.57
2023-10-29T15:18:34.001Z,11.39
2023-10-29T15:22:37.700Z,11.48
2023-10-29T15:26:41.846Z,11.38
2023-10-29T15:30:44.644Z,11.42
2023-10-29T15:34:47.692Z,11.39
2023-10-29T15:38:51.039Z,11.37
2023-10-29T15:42:55.544Z,11.32
2023-10-29T15:46:58.351Z,11.28
2023-10-29T15:51:02.147Z,11.21
2023-10-29T15:55:05.612Z,11.00
2023-10-29T15:59:10.551Z,11.11
2023-10-29T16:03:13.487Z,10.96
2023-10-29T16:07:16.310Z,10.92
2023-10-29T16:11:23.191Z,10.90
2023-10-29T16:15:28.701Z,10.79
2023-10-29T16:19:31.545Z,10.85
2023-10-29T16:23:34.363Z,10.80
2023-10-29T16:27:37.319Z,10.77
2023-10-29T16:31:41.625Z,10.73
2023-10-29T16:35:44.346Z,10.72
2023-10-29T16:39:47.382Z,10.69
2023-10-29T16:43:51.199Z,10.68
2023-10-29T16:47:55.733Z,9.73
2023-10-29T16:51:59.238Z,10.33
2023-10-29T16:56:05.781Z,10.65
2023-10-29T17:00:10.123Z,10.55
2023-10-29T17:04:14.649Z,10.50
2023-10-29T17:08:18.004Z,10.58
2023-10-29T17:12:20.820Z,10.59
2023-10-29T17:16:23.665Z,10.16
2023-10-29T17:20:30.129Z,10.29
2023-10-29T17:24:32.985Z,10.49
2023-10-29T17:28:35.793Z,10.54
2023-10-29T17:32:38.550Z,10.51
2023-10-29T17:36:42.737Z,10.54
2023-10-29T17:40:45.483Z,10.58
2023-10-29T17:44:48.413Z,10.58
2023-10-29T17:48:53.196Z,10.55
2023-10-29T17:52:57.499Z,10.56
2023-10-29T17:57:00.365Z,10.56
2023-10-29T18:01:03.799Z,10.54
2023-10-29T18:05:06.882Z,10.44
2023-10-29T18:09:11.485Z,10.32
2023-10-29T18:13:14.232Z,10.26
2023-10-29T18:17:19.670Z,10.10
2023-10-29T18:21:22.506Z,10.07
2023-10-29T18:25:27.177Z,10.13
2023-10-29T18:29:30.130Z,10.17
2023-10-29T18:33:33.630Z,9.99
2023-10-29T18:37:36.868Z,10.03
2023-10-29T18:41:41.162Z,9.86
2023-10-29T18:45:44.017Z,9.74
2023-10-29T18:49:46.911Z,9.45
2023-10-29T18:53:49.926Z,9.58
2023-10-29T18:57:54.139Z,9.40
2023-10-29T19:01:56.921Z,9.20
2023-10-29T19:05:59.659Z,7.92
2023-10-29T19:10:02.525Z,8.94
2023-10-29T19:14:06.802Z,8.75
2023-10-29T19:18:09.705Z,8.63
2023-10-29T19:22:13.860Z,8.97
2023-10-29T19:26:16.686Z,9.05
2023-10-29T19:30:21.019Z,8.61
2023-10-29T19:34:23.904Z,8.60
2023-10-29T19:38:27.004Z,8.82
2023-10-29T19:42:29.712Z,8.83
2023-10-29T19:46:35.099Z,8.71
2023-10-29T19:50:39.577Z,8.49
2023-10-29T19:54:42.569Z,8.67
2023-10-29T19:58:45.673Z,8.37
2023-10-29T20:02:49.868Z,8.82
2023-10-29T20:06:52.812Z,8.22
2023-10-29T20:10:55.481Z,8.69
2023-10-29T20:14:58.189Z,8.75
2023-10-29T20:19:02.412Z,8.81
2023-10-29T20:23:05.147Z,8.86
2023-10-29T20:27:07.842Z,8.99
2023-10-29T20:31:10.558Z,8.76
2023-10-29T20:35:14.731Z,8.83
2023-10-29T20:39:17.510Z,8.68
2023-10-29T20:43:20.293Z,8.85
2023-10-29T20:47:22.964Z,8.81
2023-10-29T20:51:27.026Z,8.84
2023-10-29T20:55:30.001Z,8.85
2023-10-29T20:59:32.662Z,8.98
2023-10-29T21:03:35.664Z,9.00
2023-10-29T21:07:42.522Z,8.96
2023-10-29T21:11:45.255Z,8.95
2023-10-29T21:15:49.304Z,9.02
2023-10-29T21:19:52.273Z,9.19
2023-10-29T21:23:56.329Z,9.08
2023-10-29T21:27:59.117Z,9.03
2023-10-29T21:32:01.939Z,9.13
2023-10-29T21:36:05.989Z,9.03
2023-10-29T21:40:11.891Z,9.08
2023-10-29T21:44:15.314Z,8.82
2023-10-29T21:48:18.660Z,8.97
2023-10-29T21:52:21.597Z,8.94
2023-10-29T21:56:25.686Z,8.79
2023-10-29T22:00:28.588Z,8.97
2023-10-29T22:04:32.234Z,8.87
2023-10-29T22:08:35.331Z,8.75
2023-10-29T22:12:39.480Z,8.63
2023-10-29T22:16:42.731Z,8.86
2023-10-29T22:20:45.539Z,8.75
2023-10-29T22:24:48.640Z,8.45
2023-10-29T22:28:52.852Z,8.67
2023-10-29T22:32:55.673Z,8.62
2023-10-29T22:36:58.642Z,8.52
2023-10-29T22:41:02.731Z,8.49
2023-10-29T22:45:08.007Z,8.51
2023-10-29T22:49:10.787Z,8.68
2023-10-29T22:53:13.592Z,8.59
2023-10-29T22:57:16.441Z,8.72
2023-10-29T23:01:20.988Z,8.74
2023-10-29T23:05:24.143Z,8.58
2023-10-29T23:09:27.241Z,8.49
2023-10-29T23:13:30.288Z,8.50
2023-10-29T23:17:34.478Z,8.52
2023-10-29T23:21:37.350Z,8.73
2023-10-29T23:25:40.727Z,8.68
2023-10-29T23:29:43.467Z,8.57
2023-10-29T23:33:47.832Z,8.69
2023-10-29T23:37:51.409Z,8.81
2023-10-29T23:41:54.164Z,8.69
2023-10-29T23:45:57.017Z,8.69
2023-10-29T23:50:01.277Z,8.80
2023-10-29T23:54:04.415Z,8.77
2023-10-29T23:58:07.244Z,8.89
